sensor_id;sensor_type;location;lat;lon;timestamp;P1;durP1;ratioP1;P2;durP2;ratioP2
65799;SDS011;52544;48.116;11.660;2023-07-13T00:01:42;6.75;;;3.05;;
65799;SDS011;52544;48.116;11.660;2023-07-13T00:04:08;4.30;;;2.90;;
65799;SDS011;52544;48.116;11.660;2023-07-13T00:06:33;3.55;;;2.78;;
65799;SDS011;52544;48.116;11.660;2023-07-13T00:09:00;5.20;;;3.08;;
65799;SDS011;52544;48.116;11.660;2023-07-13T00:11:26;6.22;;;2.90;;
65799;SDS011;52544;48.116;11.660;2023-07-13T00:13:52;4.32;;;2.92;;
65799;SDS011;52544;48.116;11.660;2023-07-13T00:16:18;4.25;;;2.70;;
65799;SDS011;52544;48.116;11.660;2023-07-13T00:18:44;3.88;;;2.72;;
65799;SDS011;52544;48.116;11.660;2023-07-13T00:21:10;5.25;;;2.72;;
65799;SDS011;52544;48.116;11.660;2023-07-13T00:23:37;7.18;;;3.03;;
65799;SDS011;52544;48.116;11.660;2023-07-13T00:26:04;4.90;;;3.20;;
65799;SDS011;52544;48.116;11.660;2023-07-13T00:28:32;5.63;;;2.85;;
65799;SDS011;52544;48.116;11.660;2023-07-13T00:30:59;5.35;;;3.25;;
65799;SDS011;52544;48.116;11.660;2023-07-13T00:33:24;5.55;;;2.78;;
65799;SDS011;52544;48.116;11.660;2023-07-13T00:35:50;5.05;;;2.92;;
65799;SDS011;52544;48.116;11.660;2023-07-13T00:38:16;4.43;;;3.08;;
65799;SDS011;52544;48.116;11.660;2023-07-13T00:40:41;5.05;;;2.90;;
65799;SDS011;52544;48.116;11.660;2023-07-13T00:43:09;3.45;;;2.58;;
65799;SDS011;52544;48.116;11.660;2023-07-13T00:48:08;3.72;;;2.50;;
65799;SDS011;52544;48.116;11.660;2023-07-13T00:50:35;4.50;;;2.88;;
65799;SDS011;52544;48.116;11.660;2023-07-13T00:53:02;7.45;;;3.13;;
65799;SDS011;52544;48.116;11.660;2023-07-13T00:55:28;5.00;;;2.67;;
65799;SDS011;52544;48.116;11.660;2023-07-13T00:57:54;3.83;;;2.60;;
65799;SDS011;52544;48.116;11.660;2023-07-13T01:00:19;2.60;;;2.40;;
65799;SDS011;52544;48.116;11.660;2023-07-13T01:02:47;4.22;;;2.97;;
65799;SDS011;52544;48.116;11.660;2023-07-13T01:05:15;4.00;;;2.55;;
65799;SDS011;52544;48.116;11.660;2023-07-13T01:07:43;4.35;;;2.70;;
65799;SDS011;52544;48.116;11.660;2023-07-13T01:10:10;5.65;;;2.65;;
65799;SDS011;52544;48.116;11.660;2023-07-13T01:12:37;5.70;;;3.03;;
65799;SDS011;52544;48.116;11.660;2023-07-13T01:15:02;5.85;;;2.60;;
65799;SDS011;52544;48.116;11.660;2023-07-13T01:17:29;5.93;;;3.08;;
65799;SDS011;52544;48.116;11.660;2023-07-13T01:19:56;7.95;;;2.92;;
65799;SDS011;52544;48.116;11.660;2023-07-13T01:22:21;4.72;;;2.67;;
65799;SDS011;52544;48.116;11.660;2023-07-13T01:24:51;4.22;;;2.80;;
65799;SDS011;52544;48.116;11.660;2023-07-13T01:27:20;4.10;;;2.85;;
65799;SDS011;52544;48.116;11.660;2023-07-13T01:29:48;3.35;;;2.63;;
65799;SDS011;52544;48.116;11.660;2023-07-13T01:32:18;4.97;;;2.80;;
65799;SDS011;52544;48.116;11.660;2023-07-13T01:34:52;7.38;;;3.00;;
65799;SDS011;52544;48.116;11.660;2023-07-13T01:37:22;6.22;;;3.28;;
65799;SDS011;52544;48.116;11.660;2023-07-13T01:39:49;4.43;;;2.70;;
65799;SDS011;52544;48.116;11.660;2023-07-13T01:42:14;8.02;;;3.00;;
65799;SDS011;52544;48.116;11.660;2023-07-13T01:44:40;4.35;;;3.00;;
65799;SDS011;52544;48.116;11.660;2023-07-13T01:47:05;3.38;;;2.40;;
65799;SDS011;52544;48.116;11.660;2023-07-13T01:49:31;7.85;;;3.03;;
65799;SDS011;52544;48.116;11.660;2023-07-13T01:51:56;6.85;;;3.20;;
65799;SDS011;52544;48.116;11.660;2023-07-13T01:54:22;4.32;;;2.85;;
65799;SDS011;52544;48.116;11.660;2023-07-13T01:56:47;4.97;;;2.80;;
65799;SDS011;52544;48.116;11.660;2023-07-13T01:59:13;6.05;;;3.30;;
65799;SDS011;52544;48.116;11.660;2023-07-13T02:01:38;6.13;;;2.80;;
65799;SDS011;52544;48.116;11.660;2023-07-13T02:04:04;5.07;;;3.28;;
65799;SDS011;52544;48.116;11.660;2023-07-13T02:06:29;5.13;;;2.83;;
65799;SDS011;52544;48.116;11.660;2023-07-13T02:08:55;3.70;;;2.97;;
65799;SDS011;52544;48.116;11.660;2023-07-13T02:11:20;5.05;;;3.35;;
65799;SDS011;52544;48.116;11.660;2023-07-13T02:13:46;4.63;;;3.10;;
65799;SDS011;52544;48.116;11.660;2023-07-13T02:16:11;5.43;;;3.10;;
65799;SDS011;52544;48.116;11.660;2023-07-13T02:18:37;5.22;;;2.92;;
65799;SDS011;52544;48.116;11.660;2023-07-13T02:21:02;5.43;;;2.95;;
65799;SDS011;52544;48.116;11.660;2023-07-13T02:23:28;4.47;;;3.20;;
65799;SDS011;52544;48.116;11.660;2023-07-13T02:25:57;4.75;;;2.95;;
65799;SDS011;52544;48.116;11.660;2023-07-13T02:28:24;5.45;;;3.25;;
65799;SDS011;52544;48.116;11.660;2023-07-13T02:30:50;5.85;;;3.35;;
65799;SDS011;52544;48.116;11.660;2023-07-13T02:33:16;8.43;;;3.10;;
65799;SDS011;52544;48.116;11.660;2023-07-13T02:35:41;4.50;;;3.17;;
65799;SDS011;52544;48.116;11.660;2023-07-13T02:38:07;4.00;;;2.83;;
65799;SDS011;52544;48.116;11.660;2023-07-13T02:40:32;6.20;;;3.33;;
65799;SDS011;52544;48.116;11.660;2023-07-13T02:42:58;5.18;;;3.10;;
65799;SDS011;52544;48.116;11.660;2023-07-13T02:45:24;4.22;;;3.00;;
65799;SDS011;52544;48.116;11.660;2023-07-13T02:47:50;5.45;;;3.20;;
65799;SDS011;52544;48.116;11.660;2023-07-13T02:50:15;8.07;;;3.15;;
65799;SDS011;52544;48.116;11.660;2023-07-13T02:52:41;3.85;;;2.92;;
65799;SDS011;52544;48.116;11.660;2023-07-13T02:55:06;5.28;;;3.10;;
65799;SDS011;52544;48.116;11.660;2023-07-13T02:57:32;5.20;;;2.80;;
65799;SDS011;52544;48.116;11.660;2023-07-13T02:59:58;5.85;;;3.10;;
65799;SDS011;52544;48.116;11.660;2023-07-13T03:02:23;9.63;;;3.80;;
65799;SDS011;52544;48.116;11.660;2023-07-13T03:04:49;5.20;;;3.58;;
65799;SDS011;52544;48.116;11.660;2023-07-13T03:07:14;5.03;;;3.75;;
65799;SDS011;52544;48.116;11.660;2023-07-13T03:09:40;8.32;;;3.90;;
65799;SDS011;52544;48.116;11.660;2023-07-13T03:12:06;7.00;;;4.00;;
65799;SDS011;52544;48.116;11.660;2023-07-13T03:14:31;6.82;;;4.20;;
65799;SDS011;52544;48.116;11.660;2023-07-13T03:16:57;7.18;;;3.70;;
65799;SDS011;52544;48.116;11.660;2023-07-13T03:19:23;6.65;;;3.88;;
65799;SDS011;52544;48.116;11.660;2023-07-13T03:21:49;5.78;;;3.83;;
65799;SDS011;52544;48.116;11.660;2023-07-13T03:24:14;7.35;;;4.07;;
65799;SDS011;52544;48.116;11.660;2023-07-13T03:26:40;5.75;;;3.78;;
65799;SDS011;52544;48.116;11.660;2023-07-13T03:29:05;7.80;;;4.60;;
65799;SDS011;52544;48.116;11.660;2023-07-13T03:31:33;5.75;;;4.47;;
65799;SDS011;52544;48.116;11.660;2023-07-13T03:33:59;6.72;;;4.57;;
65799;SDS011;52544;48.116;11.660;2023-07-13T03:36:26;6.97;;;3.70;;
65799;SDS011;52544;48.116;11.660;2023-07-13T03:38:54;5.35;;;3.88;;
65799;SDS011;52544;48.116;11.660;2023-07-13T03:41:23;8.65;;;4.40;;
65799;SDS011;52544;48.116;11.660;2023-07-13T03:43:49;5.50;;;3.80;;
65799;SDS011;52544;48.116;11.660;2023-07-13T03:46:15;6.40;;;3.90;;
65799;SDS011;52544;48.116;11.660;2023-07-13T03:48:42;5.70;;;4.18;;
65799;SDS011;52544;48.116;11.660;2023-07-13T03:51:10;7.18;;;4.07;;
65799;SDS011;52544;48.116;11.660;2023-07-13T03:53:39;5.78;;;3.67;;
65799;SDS011;52544;48.116;11.660;2023-07-13T03:56:06;6.45;;;3.90;;
65799;SDS011;52544;48.116;11.660;2023-07-13T03:58:33;6.50;;;3.58;;
65799;SDS011;52544;48.116;11.660;2023-07-13T04:01:03;5.50;;;3.63;;
65799;SDS011;52544;48.116;11.660;2023-07-13T04:03:30;5.00;;;3.38;;
65799;SDS011;52544;48.116;11.660;2023-07-13T04:05:58;5.70;;;3.33;;
65799;SDS011;52544;48.116;11.660;2023-07-13T04:08:28;5.22;;;3.63;;
65799;SDS011;52544;48.116;11.660;2023-07-13T04:10:55;5.10;;;3.20;;
65799;SDS011;52544;48.116;11.660;2023-07-13T04:13:21;4.78;;;3.20;;
65799;SDS011;52544;48.116;11.660;2023-07-13T04:15:47;5.35;;;3.30;;
65799;SDS011;52544;48.116;11.660;2023-07-13T04:18:13;5.95;;;3.70;;
65799;SDS011;52544;48.116;11.660;2023-07-13T04:20:38;5.35;;;3.15;;
65799;SDS011;52544;48.116;11.660;2023-07-13T04:23:04;4.85;;;3.58;;
65799;SDS011;52544;48.116;11.660;2023-07-13T04:25:29;7.07;;;3.65;;
65799;SDS011;52544;48.116;11.660;2023-07-13T04:27:55;6.60;;;3.65;;
65799;SDS011;52544;48.116;11.660;2023-07-13T04:30:21;7.05;;;4.05;;
65799;SDS011;52544;48.116;11.660;2023-07-13T04:32:47;5.20;;;3.50;;
65799;SDS011;52544;48.116;11.660;2023-07-13T04:35:13;5.93;;;3.47;;
65799;SDS011;52544;48.116;11.660;2023-07-13T04:37:39;7.47;;;3.60;;
65799;SDS011;52544;48.116;11.660;2023-07-13T04:40:05;5.85;;;3.50;;
65799;SDS011;52544;48.116;11.660;2023-07-13T04:42:32;6.18;;;4.03;;
65799;SDS011;52544;48.116;11.660;2023-07-13T04:44:59;8.30;;;3.72;;
65799;SDS011;52544;48.116;11.660;2023-07-13T04:47:24;5.82;;;3.47;;
65799;SDS011;52544;48.116;11.660;2023-07-13T04:49:50;5.38;;;3.47;;
65799;SDS011;52544;48.116;11.660;2023-07-13T04:52:15;6.35;;;4.13;;
65799;SDS011;52544;48.116;11.660;2023-07-13T04:54:41;5.88;;;3.72;;
65799;SDS011;52544;48.116;11.660;2023-07-13T04:57:07;7.70;;;3.63;;
65799;SDS011;52544;48.116;11.660;2023-07-13T04:59:33;6.70;;;4.38;;
65799;SDS011;52544;48.116;11.660;2023-07-13T05:01:59;7.15;;;3.67;;
65799;SDS011;52544;48.116;11.660;2023-07-13T05:04:24;6.25;;;3.67;;
65799;SDS011;52544;48.116;11.660;2023-07-13T05:06:50;5.45;;;3.40;;
65799;SDS011;52544;48.116;11.660;2023-07-13T05:09:15;5.60;;;3.72;;
65799;SDS011;52544;48.116;11.660;2023-07-13T05:11:41;5.78;;;3.40;;
65799;SDS011;52544;48.116;11.660;2023-07-13T05:14:08;4.85;;;3.20;;
65799;SDS011;52544;48.116;11.660;2023-07-13T05:16:34;5.60;;;3.60;;
65799;SDS011;52544;48.116;11.660;2023-07-13T05:19:00;7.00;;;3.38;;
65799;SDS011;52544;48.116;11.660;2023-07-13T05:21:25;6.13;;;3.65;;
65799;SDS011;52544;48.116;11.660;2023-07-13T05:23:51;6.20;;;3.40;;
65799;SDS011;52544;48.116;11.660;2023-07-13T05:26:16;6.55;;;3.53;;
65799;SDS011;52544;48.116;11.660;2023-07-13T05:28:41;5.30;;;3.47;;
65799;SDS011;52544;48.116;11.660;2023-07-13T05:31:08;13.55;;;5.85;;
65799;SDS011;52544;48.116;11.660;2023-07-13T05:33:34;4.93;;;3.53;;
65799;SDS011;52544;48.116;11.660;2023-07-13T05:36:00;10.68;;;4.80;;
65799;SDS011;52544;48.116;11.660;2023-07-13T05:38:26;6.57;;;3.83;;
65799;SDS011;52544;48.116;11.660;2023-07-13T05:40:52;5.28;;;3.70;;
65799;SDS011;52544;48.116;11.660;2023-07-13T05:43:19;6.05;;;3.35;;
65799;SDS011;52544;48.116;11.660;2023-07-13T05:45:44;6.93;;;3.95;;
65799;SDS011;52544;48.116;11.660;2023-07-13T05:48:10;8.70;;;3.58;;
65799;SDS011;52544;48.116;11.660;2023-07-13T05:50:35;5.72;;;3.67;;
65799;SDS011;52544;48.116;11.660;2023-07-13T05:53:01;5.53;;;4.05;;
65799;SDS011;52544;48.116;11.660;2023-07-13T05:55:26;20.20;;;13.00;;
65799;SDS011;52544;48.116;11.660;2023-07-13T05:57:51;7.32;;;4.20;;
65799;SDS011;52544;48.116;11.660;2023-07-13T06:00:17;6.22;;;3.90;;
65799;SDS011;52544;48.116;11.660;2023-07-13T06:02:42;7.15;;;4.70;;
65799;SDS011;52544;48.116;11.660;2023-07-13T06:05:08;5.82;;;3.78;;
65799;SDS011;52544;48.116;11.660;2023-07-13T06:07:33;14.55;;;4.10;;
65799;SDS011;52544;48.116;11.660;2023-07-13T06:09:59;7.05;;;3.88;;
65799;SDS011;52544;48.116;11.660;2023-07-13T06:12:25;6.13;;;4.10;;
65799;SDS011;52544;48.116;11.660;2023-07-13T06:14:50;8.50;;;3.78;;
65799;SDS011;52544;48.116;11.660;2023-07-13T06:17:16;6.68;;;3.78;;
65799;SDS011;52544;48.116;11.660;2023-07-13T06:19:41;8.57;;;4.47;;
65799;SDS011;52544;48.116;11.660;2023-07-13T06:22:07;9.65;;;4.28;;
65799;SDS011;52544;48.116;11.660;2023-07-13T06:24:32;7.18;;;3.83;;
65799;SDS011;52544;48.116;11.660;2023-07-13T06:26:57;5.68;;;3.78;;
65799;SDS011;52544;48.116;11.660;2023-07-13T06:29:23;8.23;;;4.00;;
65799;SDS011;52544;48.116;11.660;2023-07-13T06:31:48;6.28;;;3.53;;
65799;SDS011;52544;48.116;11.660;2023-07-13T06:34:13;10.52;;;3.85;;
65799;SDS011;52544;48.116;11.660;2023-07-13T06:36:39;6.55;;;3.38;;
65799;SDS011;52544;48.116;11.660;2023-07-13T06:39:05;9.40;;;3.63;;
65799;SDS011;52544;48.116;11.660;2023-07-13T06:41:32;5.93;;;3.38;;
65799;SDS011;52544;48.116;11.660;2023-07-13T06:43:58;5.80;;;3.47;;
65799;SDS011;52544;48.116;11.660;2023-07-13T06:46:24;4.53;;;3.40;;
65799;SDS011;52544;48.116;11.660;2023-07-13T06:48:49;7.55;;;4.07;;
65799;SDS011;52544;48.116;11.660;2023-07-13T06:51:15;5.35;;;3.35;;
65799;SDS011;52544;48.116;11.660;2023-07-13T06:53:40;6.65;;;3.63;;
65799;SDS011;52544;48.116;11.660;2023-07-13T06:56:07;4.63;;;3.03;;
65799;SDS011;52544;48.116;11.660;2023-07-13T06:58:33;6.10;;;3.38;;
65799;SDS011;52544;48.116;11.660;2023-07-13T07:00:59;5.72;;;3.78;;
65799;SDS011;52544;48.116;11.660;2023-07-13T07:03:24;6.45;;;3.40;;
65799;SDS011;52544;48.116;11.660;2023-07-13T07:05:50;6.72;;;4.32;;
65799;SDS011;52544;48.116;11.660;2023-07-13T07:08:15;7.13;;;3.83;;
65799;SDS011;52544;48.116;11.660;2023-07-13T07:10:41;5.90;;;3.92;;
65799;SDS011;52544;48.116;11.660;2023-07-13T07:13:07;5.47;;;3.75;;
65799;SDS011;52544;48.116;11.660;2023-07-13T07:15:34;7.32;;;3.72;;
65799;SDS011;52544;48.116;11.660;2023-07-13T07:18:00;7.47;;;3.85;;
65799;SDS011;52544;48.116;11.660;2023-07-13T07:20:25;9.25;;;4.22;;
65799;SDS011;52544;48.116;11.660;2023-07-13T07:22:51;6.80;;;4.55;;
65799;SDS011;52544;48.116;11.660;2023-07-13T07:25:17;7.10;;;4.65;;
65799;SDS011;52544;48.116;11.660;2023-07-13T07:27:43;11.23;;;4.22;;
65799;SDS011;52544;48.116;11.660;2023-07-13T07:30:08;6.28;;;3.40;;
65799;SDS011;52544;48.116;11.660;2023-07-13T07:32:34;5.93;;;3.80;;
65799;SDS011;52544;48.116;11.660;2023-07-13T07:35:00;5.10;;;3.35;;
65799;SDS011;52544;48.116;11.660;2023-07-13T07:37:25;6.55;;;3.15;;
65799;SDS011;52544;48.116;11.660;2023-07-13T07:39:51;5.30;;;3.08;;
65799;SDS011;52544;48.116;11.660;2023-07-13T07:42:16;4.15;;;2.83;;
65799;SDS011;52544;48.116;11.660;2023-07-13T07:44:42;7.40;;;4.32;;
65799;SDS011;52544;48.116;11.660;2023-07-13T07:47:08;7.88;;;3.90;;
65799;SDS011;52544;48.116;11.660;2023-07-13T07:49:34;6.53;;;3.53;;
65799;SDS011;52544;48.116;11.660;2023-07-13T07:52:00;9.10;;;3.00;;
65799;SDS011;52544;48.116;11.660;2023-07-13T07:54:25;5.05;;;2.95;;
65799;SDS011;52544;48.116;11.660;2023-07-13T07:56:51;5.22;;;3.42;;
65799;SDS011;52544;48.116;11.660;2023-07-13T07:59:16;4.45;;;3.10;;
65799;SDS011;52544;48.116;11.660;2023-07-13T08:01:42;7.35;;;3.10;;
65799;SDS011;52544;48.116;11.660;2023-07-13T08:04:08;5.65;;;3.53;;
65799;SDS011;52544;48.116;11.660;2023-07-13T08:06:34;8.50;;;3.53;;
65799;SDS011;52544;48.116;11.660;2023-07-13T08:09:00;4.47;;;2.80;;
65799;SDS011;52544;48.116;11.660;2023-07-13T08:11:26;5.13;;;3.67;;
65799;SDS011;52544;48.116;11.660;2023-07-13T08:13:52;8.48;;;3.53;;
65799;SDS011;52544;48.116;11.660;2023-07-13T08:16:17;5.07;;;2.97;;
65799;SDS011;52544;48.116;11.660;2023-07-13T08:18:42;7.82;;;3.60;;
65799;SDS011;52544;48.116;11.660;2023-07-13T08:21:08;5.78;;;3.22;;
65799;SDS011;52544;48.116;11.660;2023-07-13T08:23:34;6.07;;;3.47;;
65799;SDS011;52544;48.116;11.660;2023-07-13T08:26:01;5.97;;;3.08;;
65799;SDS011;52544;48.116;11.660;2023-07-13T08:28:27;6.75;;;3.47;;
65799;SDS011;52544;48.116;11.660;2023-07-13T08:30:53;4.22;;;2.60;;
65799;SDS011;52544;48.116;11.660;2023-07-13T08:33:19;9.77;;;4.97;;
65799;SDS011;52544;48.116;11.660;2023-07-13T08:35:46;11.07;;;5.10;;
65799;SDS011;52544;48.116;11.660;2023-07-13T08:38:13;5.90;;;2.97;;
65799;SDS011;52544;48.116;11.660;2023-07-13T08:40:39;8.65;;;3.00;;
65799;SDS011;52544;48.116;11.660;2023-07-13T08:43:07;4.43;;;3.08;;
65799;SDS011;52544;48.116;11.660;2023-07-13T08:45:43;6.90;;;2.95;;
65799;SDS011;52544;48.116;11.660;2023-07-13T08:48:17;7.80;;;2.97;;
65799;SDS011;52544;48.116;11.660;2023-07-13T08:50:50;6.60;;;3.10;;
65799;SDS011;52544;48.116;11.660;2023-07-13T08:53:21;7.00;;;2.80;;
65799;SDS011;52544;48.116;11.660;2023-07-13T08:55:51;8.43;;;3.00;;
65799;SDS011;52544;48.116;11.660;2023-07-13T08:58:23;5.00;;;2.90;;
65799;SDS011;52544;48.116;11.660;2023-07-13T09:03:37;4.53;;;3.03;;
65799;SDS011;52544;48.116;11.660;2023-07-13T09:06:11;7.78;;;3.63;;
65799;SDS011;52544;48.116;11.660;2023-07-13T09:14:01;5.78;;;2.90;;
65799;SDS011;52544;48.116;11.660;2023-07-13T09:16:37;7.05;;;2.80;;
65799;SDS011;52544;48.116;11.660;2023-07-13T09:19:05;4.13;;;2.92;;
65799;SDS011;52544;48.116;11.660;2023-07-13T09:21:35;4.43;;;2.80;;
65799;SDS011;52544;48.116;11.660;2023-07-13T09:24:41;8.07;;;2.72;;
65799;SDS011;52544;48.116;11.660;2023-07-13T09:27:17;6.60;;;2.10;;
65799;SDS011;52544;48.116;11.660;2023-07-13T09:29:47;5.03;;;2.42;;
65799;SDS011;52544;48.116;11.660;2023-07-13T09:32:17;5.57;;;2.00;;
65799;SDS011;52544;48.116;11.660;2023-07-13T09:34:49;5.25;;;2.30;;
65799;SDS011;52544;48.116;11.660;2023-07-13T09:37:23;2.50;;;2.28;;
65799;SDS011;52544;48.116;11.660;2023-07-13T09:39:55;6.20;;;2.70;;
65799;SDS011;52544;48.116;11.660;2023-07-13T09:42:22;7.20;;;3.35;;
65799;SDS011;52544;48.116;11.660;2023-07-13T09:44:54;4.32;;;2.50;;
65799;SDS011;52544;48.116;11.660;2023-07-13T09:47:22;4.47;;;2.30;;
65799;SDS011;52544;48.116;11.660;2023-07-13T09:49:55;6.15;;;2.72;;
65799;SDS011;52544;48.116;11.660;2023-07-13T09:52:25;4.00;;;2.30;;
65799;SDS011;52544;48.116;11.660;2023-07-13T09:54:52;6.68;;;3.05;;
65799;SDS011;52544;48.116;11.660;2023-07-13T09:57:24;3.60;;;2.50;;
65799;SDS011;52544;48.116;11.660;2023-07-13T09:59:52;6.53;;;3.08;;
65799;SDS011;52544;48.116;11.660;2023-07-13T10:07:30;7.90;;;3.05;;
65799;SDS011;52544;48.116;11.660;2023-07-13T10:09:59;5.55;;;3.05;;
65799;SDS011;52544;48.116;11.660;2023-07-13T10:12:29;5.35;;;3.00;;
65799;SDS011;52544;48.116;11.660;2023-07-13T10:15:00;4.47;;;2.63;;
65799;SDS011;52544;48.116;11.660;2023-07-13T10:17:29;4.35;;;2.70;;
65799;SDS011;52544;48.116;11.660;2023-07-13T10:20:04;8.93;;;2.67;;
65799;SDS011;52544;48.116;11.660;2023-07-13T10:22:39;4.57;;;2.70;;
65799;SDS011;52544;48.116;11.660;2023-07-13T10:25:21;5.50;;;3.50;;
65799;SDS011;52544;48.116;11.660;2023-07-13T10:27:50;9.35;;;3.72;;
65799;SDS011;52544;48.116;11.660;2023-07-13T10:30:22;7.53;;;3.03;;
65799;SDS011;52544;48.116;11.660;2023-07-13T10:32:53;5.68;;;2.60;;
65799;SDS011;52544;48.116;11.660;2023-07-13T10:35:19;5.90;;;2.22;;
65799;SDS011;52544;48.116;11.660;2023-07-13T10:37:54;3.75;;;2.38;;
65799;SDS011;52544;48.116;11.660;2023-07-13T10:40:32;6.30;;;2.55;;
65799;SDS011;52544;48.116;11.660;2023-07-13T10:43:02;7.60;;;2.60;;
65799;SDS011;52544;48.116;11.660;2023-07-13T10:45:34;4.05;;;2.10;;
65799;SDS011;52544;48.116;11.660;2023-07-13T10:48:02;2.78;;;1.77;;
65799;SDS011;52544;48.116;11.660;2023-07-13T10:50:29;4.65;;;1.80;;
65799;SDS011;52544;48.116;11.660;2023-07-13T10:53:02;4.38;;;1.98;;
65799;SDS011;52544;48.116;11.660;2023-07-13T10:58:23;3.38;;;2.28;;
65799;SDS011;52544;48.116;11.660;2023-07-13T11:03:32;7.05;;;2.50;;
65799;SDS011;52544;48.116;11.660;2023-07-13T11:06:16;6.55;;;2.30;;
65799;SDS011;52544;48.116;11.660;2023-07-13T11:08:58;5.85;;;2.20;;
65799;SDS011;52544;48.116;11.660;2023-07-13T11:11:44;5.65;;;1.80;;
65799;SDS011;52544;48.116;11.660;2023-07-13T11:14:29;2.42;;;1.58;;
65799;SDS011;52544;48.116;11.660;2023-07-13T11:17:23;3.28;;;1.63;;
65799;SDS011;52544;48.116;11.660;2023-07-13T11:19:51;3.83;;;1.75;;
65799;SDS011;52544;48.116;11.660;2023-07-13T11:22:22;4.70;;;1.63;;
65799;SDS011;52544;48.116;11.660;2023-07-13T11:25:21;3.28;;;1.70;;
65799;SDS011;52544;48.116;11.660;2023-07-13T11:30:48;3.42;;;1.77;;
65799;SDS011;52544;48.116;11.660;2023-07-13T11:33:25;9.15;;;4.85;;
65799;SDS011;52544;48.116;11.660;2023-07-13T11:35:59;6.93;;;3.50;;
65799;SDS011;52544;48.116;11.660;2023-07-13T11:38:30;6.40;;;2.33;;
65799;SDS011;52544;48.116;11.660;2023-07-13T11:41:06;7.78;;;2.80;;
65799;SDS011;52544;48.116;11.660;2023-07-13T11:43:38;2.17;;;1.75;;
65799;SDS011;52544;48.116;11.660;2023-07-13T11:46:19;5.50;;;1.80;;
65799;SDS011;52544;48.116;11.660;2023-07-13T11:48:47;3.95;;;2.05;;
65799;SDS011;52544;48.116;11.660;2023-07-13T11:51:56;5.60;;;2.20;;
65799;SDS011;52544;48.116;11.660;2023-07-13T11:54:10;4.95;;;1.80;;
65799;SDS011;52544;48.116;11.660;2023-07-13T11:56:44;3.67;;;1.92;;
65799;SDS011;52544;48.116;11.660;2023-07-13T11:59:11;3.30;;;2.10;;
65799;SDS011;52544;48.116;11.660;2023-07-13T12:01:46;5.57;;;2.03;;
65799;SDS011;52544;48.116;11.660;2023-07-13T12:04:30;1.70;;;1.60;;
65799;SDS011;52544;48.116;11.660;2023-07-13T12:07:03;5.50;;;2.20;;
65799;SDS011;52544;48.116;11.660;2023-07-13T12:09:32;3.65;;;2.00;;
65799;SDS011;52544;48.116;11.660;2023-07-13T12:11:58;2.70;;;1.85;;
65799;SDS011;52544;48.116;11.660;2023-07-13T12:14:25;4.38;;;1.88;;
65799;SDS011;52544;48.116;11.660;2023-07-13T12:16:51;3.40;;;2.08;;
65799;SDS011;52544;48.116;11.660;2023-07-13T12:19:22;6.13;;;3.13;;
65799;SDS011;52544;48.116;11.660;2023-07-13T12:21:48;6.35;;;2.50;;
65799;SDS011;52544;48.116;11.660;2023-07-13T12:24:18;3.90;;;2.03;;
65799;SDS011;52544;48.116;11.660;2023-07-13T12:26:50;2.67;;;2.00;;
65799;SDS011;52544;48.116;11.660;2023-07-13T12:29:20;8.77;;;2.13;;
65799;SDS011;52544;48.116;11.660;2023-07-13T12:31:46;1.88;;;1.52;;
65799;SDS011;52544;48.116;11.660;2023-07-13T12:34:18;2.10;;;1.80;;
65799;SDS011;52544;48.116;11.660;2023-07-13T12:36:46;5.88;;;2.28;;
65799;SDS011;52544;48.116;11.660;2023-07-13T12:41:41;4.53;;;2.15;;
65799;SDS011;52544;48.116;11.660;2023-07-13T12:44:12;3.88;;;2.00;;
65799;SDS011;52544;48.116;11.660;2023-07-13T12:46:47;3.13;;;2.08;;
65799;SDS011;52544;48.116;11.660;2023-07-13T12:49:18;4.78;;;1.80;;
65799;SDS011;52544;48.116;11.660;2023-07-13T12:51:50;4.22;;;2.75;;
65799;SDS011;52544;48.116;11.660;2023-07-13T12:54:20;4.85;;;2.10;;
65799;SDS011;52544;48.116;11.660;2023-07-13T12:56:49;8.15;;;2.10;;
65799;SDS011;52544;48.116;11.660;2023-07-13T12:59:18;2.72;;;1.90;;
65799;SDS011;52544;48.116;11.660;2023-07-13T13:01:47;6.13;;;2.10;;
65799;SDS011;52544;48.116;11.660;2023-07-13T13:04:18;4.97;;;2.10;;
65799;SDS011;52544;48.116;11.660;2023-07-13T13:06:46;2.47;;;2.03;;
65799;SDS011;52544;48.116;11.660;2023-07-13T13:09:13;9.68;;;2.03;;
65799;SDS011;52544;48.116;11.660;2023-07-13T13:11:40;4.10;;;1.65;;
65799;SDS011;52544;48.116;11.660;2023-07-13T13:14:06;4.47;;;2.75;;
65799;SDS011;52544;48.116;11.660;2023-07-13T13:16:37;5.00;;;2.60;;
65799;SDS011;52544;48.116;11.660;2023-07-13T13:19:21;5.18;;;1.83;;
65799;SDS011;52544;48.116;11.660;2023-07-13T13:21:49;3.22;;;1.70;;
65799;SDS011;52544;48.116;11.660;2023-07-13T13:24:19;3.42;;;1.98;;
65799;SDS011;52544;48.116;11.660;2023-07-13T13:26:47;3.30;;;1.80;;
65799;SDS011;52544;48.116;11.660;2023-07-13T13:29:20;4.18;;;2.00;;
65799;SDS011;52544;48.116;11.660;2023-07-13T13:31:49;3.40;;;2.03;;
65799;SDS011;52544;48.116;11.660;2023-07-13T13:34:16;4.70;;;2.00;;
65799;SDS011;52544;48.116;11.660;2023-07-13T13:36:43;3.10;;;2.10;;
65799;SDS011;52544;48.116;11.660;2023-07-13T13:41:51;3.75;;;1.80;;
65799;SDS011;52544;48.116;11.660;2023-07-13T13:44:17;2.53;;;1.60;;
65799;SDS011;52544;48.116;11.660;2023-07-13T13:46:50;3.92;;;1.90;;
65799;SDS011;52544;48.116;11.660;2023-07-13T13:49:22;5.18;;;2.20;;
65799;SDS011;52544;48.116;11.660;2023-07-13T13:51:50;5.47;;;2.17;;
65799;SDS011;52544;48.116;11.660;2023-07-13T13:54:16;8.00;;;1.80;;
65799;SDS011;52544;48.116;11.660;2023-07-13T13:56:43;5.95;;;3.17;;
65799;SDS011;52544;48.116;11.660;2023-07-13T13:59:10;7.32;;;3.25;;
65799;SDS011;52544;48.116;11.660;2023-07-13T14:01:36;6.30;;;1.83;;
65799;SDS011;52544;48.116;11.660;2023-07-13T14:04:03;3.80;;;1.98;;
65799;SDS011;52544;48.116;11.660;2023-07-13T14:06:28;7.57;;;1.85;;
65799;SDS011;52544;48.116;11.660;2023-07-13T14:08:54;5.47;;;2.08;;
65799;SDS011;52544;48.116;11.660;2023-07-13T14:11:22;3.15;;;1.88;;
65799;SDS011;52544;48.116;11.660;2023-07-13T14:13:49;2.67;;;1.75;;
65799;SDS011;52544;48.116;11.660;2023-07-13T14:16:19;2.50;;;1.70;;
65799;SDS011;52544;48.116;11.660;2023-07-13T14:18:46;4.32;;;1.73;;
65799;SDS011;52544;48.116;11.660;2023-07-13T14:21:13;5.70;;;1.90;;
65799;SDS011;52544;48.116;11.660;2023-07-13T14:23:41;3.30;;;1.80;;
65799;SDS011;52544;48.116;11.660;2023-07-13T14:26:10;4.03;;;1.70;;
65799;SDS011;52544;48.116;11.660;2023-07-13T14:28:41;4.72;;;1.85;;
65799;SDS011;52544;48.116;11.660;2023-07-13T14:31:08;14.20;;;2.08;;
65799;SDS011;52544;48.116;11.660;2023-07-13T14:33:35;3.78;;;1.85;;
65799;SDS011;52544;48.116;11.660;2023-07-13T14:36:00;3.47;;;1.77;;
65799;SDS011;52544;48.116;11.660;2023-07-13T14:38:27;5.68;;;2.05;;
65799;SDS011;52544;48.116;11.660;2023-07-13T14:40:53;2.22;;;1.60;;
65799;SDS011;52544;48.116;11.660;2023-07-13T14:43:18;4.97;;;1.70;;
65799;SDS011;52544;48.116;11.660;2023-07-13T14:45:46;3.70;;;1.55;;
65799;SDS011;52544;48.116;11.660;2023-07-13T14:48:18;5.10;;;1.80;;
65799;SDS011;52544;48.116;11.660;2023-07-13T14:50:49;2.55;;;1.70;;
65799;SDS011;52544;48.116;11.660;2023-07-13T14:53:18;3.78;;;1.63;;
65799;SDS011;52544;48.116;11.660;2023-07-13T14:55:44;3.08;;;1.90;;
65799;SDS011;52544;48.116;11.660;2023-07-13T14:58:09;6.10;;;1.75;;
65799;SDS011;52544;48.116;11.660;2023-07-13T15:00:35;4.63;;;1.65;;
65799;SDS011;52544;48.116;11.660;2023-07-13T15:03:01;3.30;;;1.50;;
65799;SDS011;52544;48.116;11.660;2023-07-13T15:05:28;4.35;;;1.65;;
65799;SDS011;52544;48.116;11.660;2023-07-13T15:07:57;2.55;;;1.80;;